Tiempo atmosférico en la estación meteorológica de Ourense, Ourense (143 m.)



Fecha
DESCASC
Temp. máxima en grados centígrados (hora)
DESCASC
Temp. mínima en grados centígrados (hora)
DESCASC
Temp. media en grados centígrados
DESCASC
Racha de viento máxima en m/sg (hora)
DESCASC
Velocidad máxima media en intervalos de 10 minutos(hora)
DESCASC
Precipitaciones diarias en mm
DESCASC
Precipitaciones de 00:00 a 06:00 en mm
DESCASC
Precipitaciones de 06:00 a 12:00 en mm
DESCASC
Precipitaciones de 12:00 a 18:00 en mm
DESCASC
Precipitaciones de 18:00 a 24:00 en mm
DESCASC
31-03-2020 8.1 (13:50) 1.2 (07:10) 4.7 8.06 (00:30) 3.06 (00:30) 3.6 0 0 3.2 0.4
29-03-2020 21.8 (17:30) 2.3 (00:00) 12 6.39 (21:00) 2.22 (14:40) 0 0 0 0 0
28-03-2020 21.3 (17:00) 2 (00:00) 11.6 4.44 (15:50) 1.67 (14:30) 0 0 0 0 0
27-03-2020 19.2 (17:20) 0.7 (00:00) 10 7.78 (17:30) 3.33 (17:50) 0 0 0 0 0
26-03-2020 20.2 (16:40) 1.7 (00:00) 11 7.5 (15:30) 2.78 (15:30) 0 0 0 0 0
25-03-2020 24.6 (16:20) 5.5 (00:00) 15.1 8.33 (17:50) 2.78 (17:50) 0 0 0 0 0
24-03-2020 24.3 (17:20) 7 (00:00) 15.6 4.44 (14:40) 1.94 (17:30) 0 0 0 0 0
23-03-2020 22.1 (17:10) 7.6 (00:00) 14.9 5.83 (19:40) 2.22 (14:40) 0 0 0 0 0
22-03-2020 18.5 (18:10) 11.4 (04:20) 14.9 4.72 (14:10) 2.22 (14:10) 0 0 0 0 0
21-03-2020 18 (17:00) 11.3 (00:00) 14.7 5.28 (14:10) 2.78 (17:40) 1.6 1.6 0 0 0
20-03-2020 16.2 (14:20) 12 (00:00) 14.1 4.17 (17:30) 1.94 (13:40) 23.6 19.4 2.8 1.4 0
19-03-2020 24.4 (15:30) 6.8 (00:00) 15.6 5.28 (16:10) 2.5 (17:50) 7 0 0 0 7
18-03-2020 25.4 (17:40) 4.5 (00:00) 14.9 2.5 (16:20) 1.39 (15:10) 0 0 0 0 0
17-03-2020 22.6 (17:00) 5 (00:00) 13.8 6.39 (16:20) 2.78 (16:10) 0 0 0 0 0
16-03-2020 14.9 (16:30) 3.8 (00:00) 9.3 10.83 (17:10) 3.61 (19:00) 0 0 0 0 0
15-03-2020 15.2 (13:10) 0.9 (00:00) 8 6.67 (13:50) 3.06 (13:50) 3.8 0 0 3.6 0.2
14-03-2020 21.9 (18:30) 6.7 (00:00) 14.3 3.33 (10:10) 1.67 (13:10) 0 0 0 0 0
13-03-2020 18.3 (16:20) 9.2 (09:00) 13.7 6.39 (16:00) 2.22 (16:00) 0 0 0 0 0
12-03-2020 19.5 (14:50) 9.3 (00:00) 14.4 6.39 (19:20) 2.5 (15:00) 0 0 0 0 0
11-03-2020 24.9 (16:30) 6.3 (00:00) 15.6 6.67 (16:30) 3.33 (17:00) 0 0 0 0 0
10-03-2020 22.3 (17:20) 5 (00:00) 13.6 6.67 (16:10) 3.33 (16:20) 0 0 0 0 0
09-03-2020 18.8 (17:30) 3 (00:00) 10.9 3.89 (15:50) 1.94 (15:20) 0 0 0 0 0
08-03-2020 17.8 (16:10) 4.8 (00:00) 11.3 7.5 (15:00) 3.61 (15:20) 0 0 0 0 0
07-03-2020 18.5 (17:00) 7.4 (00:00) 13 4.44 (14:40) 2.22 (14:20) 0.8 0.8 0 0 0
06-03-2020 15.2 (16:20) 7.3 (00:00) 11.3 8.89 (16:10) 3.06 (16:00) 3.4 2.2 1.2 0 0
05-03-2020 16 (01:00) 9.1 (00:00) 12.6 10 (04:30) 5.28 (01:00) 17.4 12.4 1.4 1.6 2
04-03-2020 18.9 (16:00) 13.8 (00:00) 16.3 10.28 (16:50) 4.44 (16:50) 0.4 0.2 0 0.2 0

Gráficas

Temp. máximas Temp. mínimas Temp. medias Precipitaciones Rachas de viento máximas Velocidades máximas media en intervalos de 10 minutos

Datos horarios

Fecha y hora oficial Temperatura (ºC) Velocidad del viento (km/h) Dirección del viento Racha (km/h) Dirección de racha Precipitación (mm) Presión (hPa) Tendencia (hPa) Humedad (%)
2020-04-02 23:00:00 11.4 4 Noroeste 18 Noroeste 0 999.5 2.4 70
2020-04-02 22:00:00 12.8 5 Norte 13 Norte 0 998.6 1.9 65
2020-04-02 21:00:00 14.7 5 Norte 19 Noroeste 0 997.7 1.3 58
2020-04-02 20:00:00 17 5 Nordeste 23 Norte 0 997.1 0.7 52
2020-04-02 19:00:00 18.8 6 Norte 17 Norte 0 996.7 0 48
2020-04-02 18:00:00 19.8 5 Norte 20 Nordeste 0 996.4 -0.5 46
2020-04-02 17:00:00 19.9 6 Norte 22 Nordeste 0 996.4 -0.8 47
2020-04-02 16:00:00 19.5 5 Nordeste 18 Norte 0 996.7 -1 49
2020-04-02 15:00:00 18.5 6 Nordeste 19 Este 0 996.9 -1 51
2020-04-02 14:00:00 17.7 6 Nordeste 21 Nordeste 0 997.2 -0.6 54
2020-04-02 13:00:00 15 3 Sur 11 Oeste 0 997.7 0.3 70
2020-04-02 12:00:00 13.8 2 Sudeste 6 Sudeste 0 997.9 1.1 82
2020-04-02 11:00:00 11.3 3 Este 6 Este 0 997.8 1.7 86
2020-04-02 10:00:00 8.9 3 Sudoeste 5 Sudoeste 0 997.4 1.8 94
2020-04-02 09:00:00 7.6 2 Oeste 4 Sudeste 0 996.8 1.4 95
2020-04-02 08:00:00 7.6 0 Calma 5 Sudoeste 0 996.1 0.5 94
2020-04-02 07:00:00 8 2 Sur 5 Sur 0 995.6 0 91
2020-04-02 06:00:00 8 2 Sudeste 6 Sudoeste 0 995.4 -0.3 94
2020-04-02 05:00:00 7.9 0 Calma 6 Sudeste 0.2 995.6 0 93
2020-04-02 04:00:00 8.2 4 Sudeste 6 Sudeste 0 995.6 -0.1 91
2020-04-02 03:00:00 8.8 0 Calma 8 Sudeste 0 995.7 0.3 89
2020-04-02 02:00:00 9.4 3 Nordeste 8 Nordeste 0 995.6 0.6 90
2020-04-02 01:00:00 9.3 3 Oeste 7 Este 0 995.7 0.9 89
2020-04-02 00:00:00 9.4 3 Oeste 8 Este 0 995.4 1.3 86
2020-04-01 23:00:00 11 4 Este 11 Noroeste 0 995 1.3 80
2020-04-01 22:00:00 12.1 3 Oeste 7 Noroeste 0 994.8 1.3 74
2020-04-01 21:00:00 12.6 2 Norte 9 Nordeste 0 994.1 0.8 68
2020-04-01 20:00:00 13.1 3 Nordeste 10 Norte 0 993.7 0.4 69
2020-04-01 19:00:00 13.3 3 Norte 9 Nordeste 0 993.5 0.5 70
2020-04-01 18:00:00 13.1 2 Este 19 Sur 0.2 993.3 0 72
2020-04-01 17:00:00 14.2 6 Sudeste 19 Sudeste 0 993.3 -0.6 49
2020-04-01 16:00:00 15.2 5 Sur 12 Oeste 0 993 -1.2 55
2020-04-01 15:00:00 16 3 Norte 12 Oeste 0 993.3 -1.2 57
2020-04-01 14:00:00 13.6 4 Nordeste 9 Noroeste 0 993.9 -0.5 66
2020-04-01 13:00:00 10.6 3 Nordeste 12 Noroeste 0 994.2 0 84
2020-04-01 12:00:00 8 3 Sudeste 8 Sur 0 994.5 0.9 91
2020-04-01 11:00:00 6.9 4 Sudoeste 7 Oeste 0 994.4 1.8 94
2020-04-01 10:00:00 6.1 5 Sur 10 Sur 0 994.2 2.1 96
2020-04-01 09:00:00 6.2 4 Sur 8 Sudoeste 0 993.6 1.5 97
2020-04-01 08:00:00 6.3 4 Sur 6 Sur 0 992.6 1 96
2020-04-01 07:00:00 6.5 3 Sur 6 Sudeste 0 992.1 0.8 96
2020-04-01 06:00:00 6.4 0 Calma 4 Sudeste 0 992.1 0.9 97
2020-04-01 05:00:00 6.4 3 Sudeste 6 Nordeste 0 991.6 0.9 96
2020-04-01 04:00:00 6.6 0 Calma 6 Nordeste 0.2 991.3 1.1 96
2020-04-01 03:00:00 6.8 2 Este 6 Sudeste 0.4 991.2 1.4 97
2020-04-01 02:00:00 6.7 2 Sur 6 Sudeste 2.2 990.7 1.4 96
2020-04-01 01:00:00 6.9 0 Calma 5 Noroeste 0.6 990.2 1.2 94
2020-04-01 00:00:00 6.5 4 Sudeste 5 Sudeste 0 989.8 1.1 94
2020-03-31 23:00:00 6.7 2 Sur 4 Sur 0 989.3 0.9 92
2020-03-31 22:00:00 6.8 2 Sudoeste 7 Sudeste 0 989 0.5 91
2020-03-31 21:00:00 6.9 5 Sudeste 7 Sudeste 0 988.7 0 87
2020-03-31 20:00:00 7.4 3 Sur 5 Sudoeste 0 988.4 -0.3 87
2020-03-31 19:00:00 7.4 2 Sudeste 4 Sudeste 0.4 988.5 -0.6 83
2020-03-31 18:00:00 7.4 2 Sudoeste 5 Oeste 0.4 988.7 -0.7 84
2020-03-31 17:00:00 7.2 3 Sudeste 6 Sudeste 0.8 988.7 -0.5 85
2020-03-31 16:00:00 7 2 Sudoeste 9 Nordeste 1.2 989.1 -0.1 84
2020-03-31 15:00:00 7.3 2 Sudeste 10 Sudeste 0.6 989.4 -0.4 78
2020-03-31 14:00:00 8 5 Sur 12 Sur 0 989.2 -0.5 67
2020-03-31 13:00:00 6.2 5 Sudoeste 14 Norte 0.2 989.2 -1.2 69
2020-03-31 12:00:00 6 6 Nordeste 21 Norte 0 989.8 -1.1 65
2020-03-31 11:00:00 6.1 4 Norte 13 Norte 0 989.7 -1.5 58
2020-03-31 10:00:00 4.5 3 Norte 11 Norte 0 990.4 -0.9 67
2020-03-31 09:00:00 2.9 3 Norte 8 Norte 0 990.9 -1.1 76
2020-03-31 08:00:00 1.7 2 Sudoeste 6 Oeste 0 991.2 -1.5 79
2020-03-31 07:00:00 1.3 3 Sudoeste 6 Oeste 0 991.3 -2.3 80
2020-03-31 06:00:00 1.8 3 Oeste 8 Sudoeste 0 992 -2.5 77
2020-03-31 05:00:00 2.6 3 Sudoeste 15 Nordeste 0 992.7 -2.5 71
2020-03-31 04:00:00 4.1 5 Nordeste 17 Nordeste 0 993.6 -2.3 65
2020-03-31 03:00:00 3.4 3 Sudoeste 13 Nordeste 0 994.5 -1.4 66
2020-03-31 02:00:00 4.8 5 Nordeste 18 Nordeste 0 995.2 -1 58
2020-03-31 01:00:00 5.4 5 Nordeste 29 Nordeste 0 995.9 0.2 54
2020-03-31 00:00:00 5.6 9 Nordeste 22 Nordeste 0 995.9 0.9 50
2020-03-30 23:00:00 6.5 4 Norte 16 Nordeste 0 996.2 1.7 49
2020-03-30 22:00:00 7.8 3 Norte 24 Nordeste 0 995.7 1.3 44
2020-03-30 21:00:00 9.2 7 Nordeste 34 Nordeste 0 995 0.6 38
2020-03-30 20:00:00 11 6 Nordeste 27 Este 0 994.5 -0.9 36
2020-03-30 19:00:00 11 6 Nordeste 31 Este 0 994.4 -1.9 39
2020-03-30 18:00:00 12.4 5 Nordeste 19 Nordeste 0 994.4 -3 36
2020-03-30 17:00:00 11.9 6 Sur 17 Sudeste 0 995.4 -3.2 49
2020-03-30 16:00:00 11.9 8 Nordeste 22 Nordeste 0 996.3 -3 40
2020-03-30 15:00:00 11 3 Nordeste 15 Nordeste 0 997.4 -2 43
2020-03-30 14:00:00 9.2 4 Sur 12 Este 0 998.6 -0.7 63
2020-03-30 13:00:00 8.9 7 Nordeste 19 Este 0 999.3 0.3 52
2020-03-30 12:00:00 8.6 2 Sur 11 Este 0 999.4 0.5 55
2020-03-30 11:00:00 8.6 3 Nordeste 17 Nordeste 0 999.3 0.6 54
2020-03-30 10:00:00 8.5 5 Nordeste 16 Norte 0 999 0.5 53
2020-03-30 09:00:00 8.7 5 Norte 18 Noroeste 0 998.9 0.1 55
2020-03-30 08:00:00 9 5 Norte 18 Nordeste 0 998.7 -0.6 57
2020-03-30 07:00:00 9.3 6 Norte 17 Nordeste 0 998.5 -0.9 59
2020-03-30 06:00:00 9.3 4 Norte 14 Norte 0 998.8 -1 63
2020-03-30 05:00:00 9.2 4 Norte 21 Nordeste 0 999.3 -0.6 66
2020-03-30 04:00:00 9.4 4 Norte 17 Norte 0 999.4 -0.7 66
2020-03-30 03:00:00 10 4 Norte 14 Norte 0 999.8 -0.3 67
2020-03-30 02:00:00 10.3 4 Norte 13 Norte 0 999.9 -0.1 68
2020-03-30 01:00:00 10.7 4 Norte 17 Nordeste 0 1000.1 0.6 67
2020-03-30 00:00:00 11.1 3 Nordeste 13 Noroeste 0 1000.1 1.7 65
2020-03-29 23:00:00 12.1 4 Norte 21 Noroeste 0 1000 2 62
2020-03-29 22:00:00 13.3 5 Norte 18 Noroeste 0 999.5 2.1 57
2020-03-29 21:00:00 15.2 7 Norte 23 Norte 0 998.4 1.3 51
2020-03-29 20:00:00 17 6 Nordeste 20 Nordeste 0 998 0.4 51
2020-03-29 19:00:00 19.1 7 Norte 21 Nordeste 0 997.4 -1.2 43
2020-03-29 18:00:00 21.5 5 Nordeste 19 Nordeste 0 997.1 -2.3 31
2020-03-29 17:00:00 21.6 6 Nordeste 16 Nordeste 0 997.6 -2.9 31
2020-03-29 16:00:00 20.6 5 Nordeste 17 Nordeste 0 998.6 -2.9 32
2020-03-29 15:00:00 18.9 4 Norte 18 Este 0 999.4 -2.7 45
2020-03-29 14:00:00 16.3 4 Norte 13 Nordeste 0 1000.5 -2 47
2020-03-29 13:00:00 13.6 5 Nordeste 15 Norte 0 1001.5 -1.1 59
2020-03-29 12:00:00 11.1 4 Nordeste 12 Este 0 1002.1 -0.5 74
2020-03-29 11:00:00 7.3 3 Sur 5 Sudoeste 0 1002.5 0.3 82
2020-03-29 10:00:00 3.4 2 Sur 3 Sur 0 1002.6 0.7 92
2020-03-29 09:00:00 2.3 2 Sur 5 Sur 0 1002.6 0.8 92
2020-03-29 08:00:00 2.6 3 Sudoeste 5 Sudoeste 0 1002.2 0.4 91
2020-03-29 07:00:00 3.3 0 Calma 6 Sur 0 1001.9 -0.2 89
2020-03-29 06:00:00 3.8 3 Sudoeste 6 Sur 0 1001.8 -0.2 88
2020-03-29 05:00:00 4.7 2 Oeste 4 Oeste 0 1001.8 -0.2 86
2020-03-29 03:00:00 6.3 0 Calma 4 Oeste 0 1002 0.7 82
2020-03-29 01:00:00 7.5 0 Calma 5 Este 0 1002 1.3 77
2020-03-29 00:00:00 8.9 0 Calma 5 Oeste 0 1001.7 1.6 71
2020-03-28 23:00:00 10.9 0 Calma 8 Este 0 1001.3 2.6 63
2020-03-28 22:00:00 12.6 2 Este 9 Este 0 1000.7 2.5 53
2020-03-28 21:00:00 14.6 4 Nordeste 12 Este 0 1000.1 2.3 44
2020-03-28 20:00:00 18 6 Nordeste 12 Nordeste 0 998.7 1 29
2020-03-28 19:00:00 20.1 4 Nordeste 13 Este 0 998.2 0 24
2020-03-28 18:00:00 21.1 4 Norte 13 Noroeste 0 997.8 -1 23
2020-03-28 17:00:00 21.3 5 Oeste 13 Este 0 997.7 -2.1 25
2020-03-28 16:00:00 20.3 5 Norte 16 Norte 0 998.2 -2.5 25
2020-03-28 15:00:00 19.4 5 Nordeste 13 Nordeste 0 998.8 -2.6 28
2020-03-28 14:00:00 16.6 4 Norte 10 Norte 0 999.8 -1.8 37
2020-03-28 13:00:00 12 4 Sudoeste 5 Sudoeste 0 1000.7 -0.5 61
2020-03-28 12:00:00 9.3 2 Sudoeste 6 Sur 0 1001.4 0.8 65
2020-03-28 11:00:00 7.1 2 Sur 9 Sur 0 1001.6 1.5 78
2020-03-28 10:00:00 5.1 3 Sur 5 Sur 0 1001.2 1.7 83
2020-03-28 09:00:00 3.3 0 Calma 4 Oeste 0 1000.6 1.6 86
2020-03-28 08:00:00 2.2 3 Sudoeste 4 Sudoeste 0 1000.1 1.6 89
2020-03-28 07:00:00 2 2 Sur 3 Sur 0 999.5 1.4 85
2020-03-28 06:00:00 2.1 2 Sudoeste 4 Oeste 0 999 0.9 86
2020-03-28 05:00:00 2.3 2 Oeste 4 Sudeste 0 998.5 0.6 85
2020-03-28 04:00:00 2.7 2 Oeste 4 Oeste 0 998.1 0.7 81
2020-03-28 03:00:00 3.2 4 Oeste 6 Oeste 0 998.1 1 79
2020-03-28 02:00:00 4.2 2 Este 6 Sur 0 997.9 1.3 75
2020-03-28 01:00:00 4.7 2 Oeste 6 Oeste 0 997.4 1.7 72
2020-03-28 00:00:00 5.7 0 Calma 3 Nordeste 0 997.1 2.5 68
2020-03-27 23:00:00 7.3 0 Calma 6 Oeste 0 996.6 3.1 62
2020-03-27 22:00:00 9.5 2 Sudoeste 5 Sudoeste 0 995.7 3 51
2020-03-27 21:00:00 12.4 3 Oeste 9 Sudeste 0 994.6 2.5 42
2020-03-27 20:00:00 15.5 6 Sudeste 18 Sur 0 993.5 1.5 25
2020-03-27 19:00:00 17.1 10 Sur 23 Sur 0 992.7 0.4 25
2020-03-27 18:00:00 17.6 11 Sur 28 Sudoeste 0 992.1 -0.5 25
2020-03-27 17:00:00 18.8 3 Sur 13 Oeste 0 992 -1.3 26
2020-03-27 16:00:00 18.3 5 Noroeste 12 Sudoeste 0 992.3 -1.8 28
2020-03-27 15:00:00 17.3 4 Noroeste 15 Noroeste 0 992.6 -2.2 35
2020-03-27 14:00:00 15.8 4 Noroeste 15 Norte 0 993.3 -2.1 40
2020-03-27 13:00:00 14.7 5 Sudoeste 15 Oeste 0 994.1 -1.3 44
2020-03-27 12:00:00 12.4 5 Norte 12 Norte 0 994.8 -0.5 51
2020-03-27 11:00:00 10.1 4 Nordeste 13 Este 0 995.4 0.5 56
2020-03-27 10:00:00 6.1 2 Sur 5 Sudoeste 0 995.4 1.1 81
2020-03-27 09:00:00 1.9 2 Sudoeste 5 Sudeste 0 995.3 1.2 91
2020-03-27 08:00:00 0.9 3 Sudeste 8 Sur 0 994.9 1 92
2020-03-27 07:00:00 1.1 2 Sudoeste 6 Sur 0 994.3 0.3 91
2020-03-27 06:00:00 1.9 3 Sudeste 7 Sur 0 994.1 0.2 89
2020-03-27 05:00:00 2.7 2 Sudoeste 9 Sudeste 0 993.9 0.1 86
2020-03-27 04:00:00 3.7 4 Sur 9 Sur 0 994 0 83
2020-03-27 03:00:00 5.5 3 Este 8 Este 0 993.9 -0.1 78
2020-03-27 02:00:00 7.2 4 Norte 13 Noroeste 0 993.8 -0.4 70
2020-03-27 01:00:00 7.9 4 Norte 12 Noroeste 0 994 -0.1 68
2020-03-27 00:00:00 8.5 4 Norte 9 Noroeste 0 994 0.3 67
2020-03-26 23:00:00 9.1 3 Nordeste 12 Norte 0 994.2 1.2 65
2020-03-26 22:00:00 10.5 4 Nordeste 19 Noroeste 0 994.1 1.6 60
2020-03-26 21:00:00 12.4 4 Nordeste 17 Norte 0 993.7 1.5 55
2020-03-26 20:00:00 14.8 4 Nordeste 18 Este 0 993 0.6 45
2020-03-26 19:00:00 17.5 9 Nordeste 22 Nordeste 0 992.5 -0.2 32
2020-03-26 18:00:00 19.3 6 Norte 21 Nordeste 0 992.2 -1 21
2020-03-26 17:00:00 19.6 8 Nordeste 21 Nordeste 0 992.4 -1.8 27
2020-03-26 16:00:00 19.8 6 Nordeste 27 Este 0 992.7 -2.4 26
2020-03-26 15:00:00 19.8 8 Nordeste 22 Norte 0 993.2 -2.9 23
2020-03-26 14:00:00 18 6 Sudoeste 13 Sur 0 994.2 -2.7 32
2020-03-26 13:00:00 15.6 6 Sudoeste 14 Sudoeste 0 995.1 -2.3 43
2020-03-26 12:00:00 13.1 6 Oeste 14 Oeste 0 996.1 -1.8 55
2020-03-26 11:00:00 10.4 3 Oeste 12 Noroeste 0 996.9 -0.9 66
2020-03-26 10:00:00 7 3 Sudeste 6 Sur 0 997.4 0 83
2020-03-26 09:00:00 2.7 2 Sudoeste 3 Sur 0 997.9 0.9 95
2020-03-26 08:00:00 1.7 3 Sur 5 Sur 0 997.8 0.9 93
2020-03-26 07:00:00 2.4 0 Calma 5 Sur 0 997.4 0.3 90
2020-03-26 06:00:00 3.3 0 Calma 5 Sudoeste 0 997 -0.4 91
2020-03-26 05:00:00 4 2 Sudoeste 3 Sudoeste 0 996.9 -0.6 91
2020-03-26 04:00:00 5.1 0 Calma 4 Sudoeste 0 997.1 -0.4 90
2020-03-26 03:00:00 6.3 0 Calma 7 Oeste 0 997.4 0 88
2020-03-26 02:00:00 7.6 0 Calma 3 Sudeste 0 997.5 0 85
2020-03-26 01:00:00 8.7 3 Oeste 6 Oeste 0 997.5 0.1 81
2020-03-26 00:00:00 10.3 0 Calma 5 Oeste 0 997.4 0.2 76
2020-03-25 23:00:00 11.8 4 Oeste 6 Este 0 997.5 1 70
2020-03-25 22:00:00 14 0 Calma 6 Oeste 0 997.4 1.6 65
2020-03-25 21:00:00 17.1 3 Nordeste 14 Noroeste 0 997.2 1.9 51
2020-03-25 20:00:00 18.4 3 Oeste 19 Oeste 0 996.5 1.4 47
2020-03-25 19:00:00 19.6 6 Oeste 21 Oeste 0 995.8 0.5 46
2020-03-25 18:00:00 21.1 7 Oeste 30 Oeste 0 995.3 -0.5 43
2020-03-25 17:00:00 22.5 4 Norte 17 Oeste 0 995.1 -1.4 31
2020-03-25 16:00:00 24.3 8 Oeste 21 Oeste 0 995.3 -2 25
2020-03-25 15:00:00 23.5 10 Oeste 21 Oeste 0 995.8 -2.3 31
2020-03-25 14:00:00 21.7 3 Este 8 Este 0 996.5 -2.2 43
2020-03-25 13:00:00 20.1 4 Sur 8 Sur 0 997.3 -1.8 53
2020-03-25 12:00:00 16.9 4 Sur 8 Sur 0 998.1 -1 63
2020-03-25 11:00:00 13.5 3 Sur 6 Sudeste 0 998.7 -0.2 77
2020-03-25 10:00:00 10 3 Sudoeste 6 Sudoeste 0 999.1 0.5 85
2020-03-25 09:00:00 6.5 3 Sudoeste 5 Oeste 0 999.1 0.8 96
2020-03-25 08:00:00 5.5 2 Sur 4 Sur 0 998.9 0.9 93
2020-03-25 07:00:00 5.8 3 Oeste 4 Sudoeste 0 998.6 0.7 92
2020-03-25 06:00:00 6.5 3 Oeste 4 Oeste 0 998.3 0.2 91
2020-03-25 05:00:00 7.2 0 Calma 4 Oeste 0 998 -0.2 91
2020-03-25 04:00:00 7.9 2 Sudoeste 4 Sudoeste 0 997.9 -0.2 88
2020-03-25 03:00:00 8.8 3 Oeste 5 Sudeste 0 998.1 0.2 87
2020-03-25 02:00:00 9.8 0 Calma 5 Oeste 0 998.2 0.6 84
2020-03-25 01:00:00 10.8 3 Oeste 6 Este 0 998.1 1 81
2020-03-25 00:00:00 12 2 Sudoeste 4 Oeste 0 997.9 1.6 79
2020-03-24 23:00:00 13.8 3 Este 5 Este 0 997.6 1.9 72
2020-03-24 22:00:00 15.7 3 Este 6 Nordeste 0 997.1 2 63
2020-03-24 21:00:00 17.7 5 Este 8 Este 0 996.3 1.3 55
2020-03-24 20:00:00 20.3 3 Oeste 7 Oeste 0 995.7 0.7 47
2020-03-24 19:00:00 22.7 5 Sudoeste 10 Oeste 0 995.1 -0.4 37
2020-03-24 18:00:00 23.6 6 Sur 13 Oeste 0 995 -1.1 35
2020-03-24 17:00:00 24 5 Sudoeste 11 Sudoeste 0 995 -2 38
2020-03-24 16:00:00 23.2 4 Noroeste 13 Oeste 0 995.5 -2.2 32
2020-03-24 15:00:00 22.3 5 Oeste 16 Oeste 0 996.1 -2.4 39
2020-03-24 14:00:00 21.1 6 Sudoeste 12 Oeste 0 997 -2.1 43
2020-03-24 13:00:00 18.9 4 Sur 9 Sur 0 997.7 -1.7 56
2020-03-24 12:00:00 15.6 4 Sur 8 Este 0 998.5 -0.8 68
2020-03-24 11:00:00 12.2 4 Sur 6 Sur 0 999.1 0 80
2020-03-24 10:00:00 9.8 2 Sudeste 8 Sudeste 0 999.4 0.5 87
2020-03-24 09:00:00 8.8 4 Sudeste 8 Sudeste 0 999.3 0.9 91
2020-03-24 08:00:00 8 0 Calma 5 Oeste 0 999.1 0.8 94
2020-03-24 07:00:00 7.3 3 Sudoeste 5 Oeste 0 998.9 0.4 96
2020-03-24 06:00:00 7.2 3 Sudeste 6 Sudeste 0 998.4 -0.1 95
2020-03-24 05:00:00 7.6 0 Calma 4 Sur 0 998.3 -0.2 93
2020-03-24 04:00:00 7.7 2 Sudeste 5 Oeste 0 998.5 0.1 93
2020-03-24 03:00:00 8.1 2 Sur 4 Sur 0 998.5 0.3 90
2020-03-24 02:00:00 8.9 0 Calma 4 Oeste 0 998.5 0.3 88
2020-03-24 01:00:00 9.8 0 Calma 7 Este 0 998.4 0.6 86
2020-03-24 00:00:00 11.3 2 Sudeste 12 Oeste 0 998.2 1.3 81
2020-03-23 23:00:00 12 3 Oeste 15 Norte 0 998.2 2.2 78
2020-03-23 22:00:00 12.4 5 Norte 18 Noroeste 0 997.8 2.7 76
2020-03-23 21:00:00 12.8 6 Norte 20 Este 0 996.9 2.1 73
2020-03-23 20:00:00 15 6 Norte 21 Nordeste 0 996 1.1 65
2020-03-23 19:00:00 18.5 6 Norte 19 Nordeste 0 995.1 -0.2 53
2020-03-23 18:00:00 20.8 5 Nordeste 15 Nordeste 0 994.8 -1.3 40
2020-03-23 17:00:00 22 4 Noroeste 13 Oeste 0 994.9 -2.3 34
2020-03-23 16:00:00 21.3 6 Oeste 13 Sudeste 0 995.3 -2.8 39
2020-03-23 15:00:00 20.4 6 Sudoeste 14 Sur 0 996.1 -2.7 47
2020-03-23 14:00:00 18.8 6 Sudoeste 12 Sudoeste 0 997.2 -2.3 53
2020-03-23 13:00:00 17 5 Sur 13 Sur 0 998.1 -1.2 60
2020-03-23 12:00:00 15.3 4 Sur 8 Sudoeste 0 998.8 -0.1 63
2020-03-23 11:00:00 12.8 5 Sudoeste 9 Sur 0 999.5 1 78
2020-03-23 10:00:00 11.1 3 Sur 6 Sudoeste 0 999.3 1.3 86
2020-03-23 09:00:00 9.9 0 Calma 4 Sudoeste 0 998.9 1.3 91
2020-03-23 08:00:00 9.1 2 Oeste 3 Sudoeste 0 998.5 1.1 93
2020-03-23 07:00:00 8.6 0 Calma 4 Sudeste 0 998 0.8 93
2020-03-23 06:00:00 8.1 3 Sudeste 5 Sudeste 0 997.6 0.5 93
2020-03-23 05:00:00 7.7 3 Sudoeste 6 Sur 0 997.4 0.3 93
2020-03-23 04:00:00 7.9 2 Sur 6 Sudoeste 0 997.2 0.1 91
2020-03-23 03:00:00 9 0 Calma 4 Sur 0 997.1 0.1 90
2020-03-23 02:00:00 10.3 2 Sur 9 Este 0 997.1 0.2 86
2020-03-23 01:00:00 11.7 2 Este 13 Este 0 997.1 0.6 80
2020-03-23 00:00:00 12.4 4 Norte 11 Norte 0 997 1.2 78
2020-03-22 23:00:00 13.2 4 Norte 11 Noroeste 0 996.9 2.3 75
2020-03-22 22:00:00 14 3 Norte 8 Norte 0 996.5 2.4 73
2020-03-22 21:00:00 14.9 4 Norte 11 Norte 0 995.8 2.1 70
2020-03-22 20:00:00 16.2 3 Nordeste 12 Este 0 994.6 0.8 67
2020-03-22 19:00:00 17.8 4 Nordeste 11 Nordeste 0 994.1 0 60
2020-03-22 18:00:00 18.3 4 Nordeste 15 Nordeste 0 993.7 -0.7 60
2020-03-22 17:00:00 17.6 5 Nordeste 15 Nordeste 0 993.8 -1 60
2020-03-22 16:00:00 17.4 5 Nordeste 16 Nordeste 0 994.1 -1.2 63
2020-03-22 15:00:00 17 6 Noroeste 17 Oeste 0 994.4 -1.3 65
2020-03-22 14:00:00 16.7 5 Norte 12 Nordeste 0 994.8 -0.8 65
2020-03-22 13:00:00 15.8 4 Noroeste 14 Este 0 995.3 -0.1 66
2020-03-22 12:00:00 14.5 5 Norte 14 Noroeste 0 995.7 0.9 71
2020-03-22 11:00:00 13.8 3 Nordeste 12 Noroeste 0 995.6 1.1 76
2020-03-22 10:00:00 12.8 3 Nordeste 13 Noroeste 0 995.4 1.4 80
2020-03-22 09:00:00 11.9 3 Norte 11 Nordeste 0 994.8 1.1 84
2020-03-22 08:00:00 11.7 5 Nordeste 10 Nordeste 0 994.5 1.1 90
2020-03-22 07:00:00 11.5 2 Oeste 6 Oeste 0 994 0.8 93
2020-03-22 06:00:00 11.6 2 Nordeste 5 Nordeste 0 993.7 0.4 92
2020-03-22 05:00:00 11.5 2 Nordeste 5 Noroeste 0 993.4 -0.1 92
2020-03-22 04:00:00 11.5 2 Sudoeste 5 Oeste 0 993.2 -0.5 92
2020-03-22 03:00:00 11.6 0 Calma 4 Este 0 993.3 -0.3 91
2020-03-22 02:00:00 11.7 3 Sudoeste 6 Oeste 0 993.5 0.1 91
2020-03-22 01:00:00 11.9 3 Oeste 6 Oeste 0 993.7 0.5 88
2020-03-22 00:00:00 12 2 Nordeste 6 Oeste 0 993.6 0.9 88
2020-03-21 23:00:00 12.2 4 Sudoeste 8 Sudoeste 0 993.4 1.2 86
2020-03-21 22:00:00 13.3 3 Nordeste 7 Sudoeste 0 993.2 1.8 79
2020-03-21 21:00:00 13.5 3 Sur 8 Sur 0 992.7 1.8 75
2020-03-21 20:00:00 14.3 4 Sudeste 14 Sudeste 0 992.2 1.3 69
2020-03-21 19:00:00 15.3 8 Sudeste 17 Sudeste 0 991.4 0.3 65
2020-03-21 18:00:00 16.9 6 Sudeste 19 Sudeste 0 990.9 -0.9 60
2020-03-21 17:00:00 18 9 Sur 17 Sur 0 990.9 -1.4 58
2020-03-21 16:00:00 16.1 5 Sur 17 Sur 0 991.1 -1.1 68
2020-03-21 15:00:00 15 3 Sur 19 Sudeste 0 991.8 -0.1 72
2020-03-21 14:00:00 14.7 6 Sur 15 Sur 0 992.3 0.3 71
2020-03-21 13:00:00 15.5 6 Sudeste 12 Sudeste 0 992.2 0 69
2020-03-21 12:00:00 15.9 4 Oeste 7 Nordeste 0 991.9 0.1 72
2020-03-21 11:00:00 15.3 4 Nordeste 8 Sudeste 0 992 0.2 76
2020-03-21 10:00:00 12.9 3 Norte 7 Norte 0 992.2 0.6 89
2020-03-21 09:00:00 11.7 2 Sur 5 Nordeste 0 991.8 0.5 97
2020-03-21 08:00:00 11.4 0 Calma 4 Sudoeste 0 991.8 0.2 98
2020-03-21 07:00:00 11.4 0 Calma 5 Sudeste 0 991.6 0.3 98
2020-03-21 06:00:00 11.5 3 Sur 8 Sudeste 0.2 991.3 -0.6 98
2020-03-21 05:00:00 11.6 0 Calma 10 Sur 0.4 991.6 -0.9 98
2020-03-21 04:00:00 11.6 0 Calma 5 Sudeste 0 991.3 -1.9 98
2020-03-21 03:00:00 11.9 2 Sudeste 5 Sudoeste 0 991.9 -1.6 97
2020-03-21 02:00:00 12.2 0 Calma 8 Noroeste 0.4 992.5 -1 96
2020-03-21 01:00:00 12.3 0 Calma 4 Sudeste 0.6 993.2 -0.4 97
2020-03-21 00:00:00 12.3 2 Sur 4 Sudoeste 0 993.5 0 96
2020-03-20 23:00:00 12.6 0 Calma 5 Oeste 0 993.5 0.1 94
2020-03-20 22:00:00 13 2 Sudoeste 6 Sudoeste 0 993.6 0.3 93
2020-03-20 21:00:00 13.5 3 Oeste 10 Norte 0 993.5 0.2 91
2020-03-20 20:00:00 14.3 3 Nordeste 6 Nordeste 0 993.4 -0.1 86
2020-03-20 19:00:00 14.9 3 Este 7 Sudeste 0 993.3 -0.7 81
2020-03-20 18:00:00 15.1 5 Sudeste 15 Sudeste 0 993.3 -0.9 73
2020-03-20 17:00:00 15.4 3 Nordeste 12 Este 0.2 993.5 -0.7 80
2020-03-20 16:00:00 14.7 3 Oeste 15 Sudeste 0.8 994 -0.5 86
2020-03-20 15:00:00 15.3 6 Sudeste 13 Sudeste 0.4 994.2 -0.7 79
2020-03-20 14:00:00 15.8 4 Sudeste 14 Sudeste 0 994.2 -0.8 77
2020-03-20 13:00:00 15.1 3 Sur 7 Nordeste 0 994.5 -0.4 89
2020-03-20 12:00:00 14.5 3 Sudoeste 6 Sudoeste 0 994.9 0 89
2020-03-20 11:00:00 13.2 3 Sudeste 5 Sur 0 995 0 94
2020-03-20 10:00:00 12.5 2 Sur 7 Sur 0 994.9 0 97
2020-03-20 09:00:00 12.1 3 Sur 5 Sur 0.2 994.9 0.1 97
2020-03-20 08:00:00 12.1 2 Sur 5 Oeste 0.2 995 0.2 96
2020-03-20 07:00:00 12.5 0 Calma 7 Sudoeste 2.4 994.9 -0.1 97
2020-03-20 06:00:00 12.7 3 Oeste 8 Oeste 2.8 994.8 -1 98
2020-03-20 05:00:00 12.7 2 Sudeste 6 Sudoeste 3.8 994.8 -0.9 97
2020-03-20 04:00:00 12.8 3 Sudoeste 9 Nordeste 3.8 995 -1.1 96
2020-03-20 03:00:00 13 0 Calma 7 Norte 2 995.8 -0.8 96
2020-03-20 02:00:00 13 3 Oeste 8 Sudeste 2.2 995.7 -0.8 95
2020-03-20 01:00:00 13.2 3 Sudoeste 10 Sudoeste 4.8 996.1 0 95
2020-03-20 00:00:00 13.6 5 Sur 15 Norte 4.6 996.6 0.7 93
2020-03-19 23:00:00 14.6 3 Sudoeste 13 Sudeste 2.4 996.5 1.1 85
2020-03-19 22:00:00 17 5 Sudeste 12 Este 0 996.1 1 57
2020-03-19 21:00:00 17.6 4 Sudeste 9 Este 0 995.9 0.9 55
2020-03-19 20:00:00 18.9 3 Este 13 Sur 0 995.4 0 54
2020-03-19 19:00:00 21.1 5 Oeste 14 Oeste 0 995.1 -0.9 49
2020-03-19 18:00:00 22.3 5 Sudoeste 15 Sudoeste 0 995 -1.9 48
2020-03-19 17:00:00 23 8 Oeste 19 Oeste 0 995.4 -2.6 45
2020-03-19 16:00:00 23.6 5 Oeste 15 Oeste 0 996 -3.1 43
2020-03-19 15:00:00 23.6 6 Oeste 13 Norte 0 996.9 -3.5 43
2020-03-19 14:00:00 22.3 4 Nordeste 10 Este 0 998 -3.2 44
2020-03-19 13:00:00 19.8 3 Nordeste 8 Noroeste 0 999.1 -2.3 57
2020-03-19 12:00:00 16.1 3 Sudoeste 10 Oeste 0 1000.4 -0.8 69
2020-03-19 11:00:00 12.8 2 Sudoeste 5 Sudoeste 0 1001.2 0.1 80
2020-03-19 10:00:00 9.9 2 Sur 4 Sur 0 1001.4 0.4 92
2020-03-19 09:00:00 7.5 0 Calma 5 Oeste 0 1001.2 0 95
2020-03-19 08:00:00 6.8 0 Calma 2 Oeste 0 1001.1 -0.1 94
2020-03-19 07:00:00 7.2 0 Calma 5 Oeste 0 1001 -0.6 92
2020-03-19 06:00:00 7.7 0 Calma 3 Oeste 0 1001.2 -1 92
2020-03-19 05:00:00 8.2 0 Calma 4 Oeste 0 1001.2 -1.3 92
2020-03-19 04:00:00 8.7 4 Oeste 6 Oeste 0 1001.6 -1.2 91
2020-03-19 03:00:00 9.4 0 Calma 3 Oeste 0 1002.2 -0.8 90
2020-03-19 02:00:00 10.1 2 Sudoeste 5 Oeste 0 1002.5 -0.6 86
2020-03-19 01:00:00 11 2 Sudoeste 6 Oeste 0 1002.8 0 86
2020-03-19 00:00:00 11.9 2 Sudoeste 3 Oeste 0 1003 0.6 83
2020-03-18 23:00:00 13.2 2 Oeste 4 Sudoeste 0 1003.1 1.3 79
2020-03-18 22:00:00 14.7 2 Sudoeste 5 Oeste 0 1002.8 1.2 73
2020-03-18 21:00:00 16.5 3 Sudoeste 5 Sudoeste 0 1002.4 0.9 68
2020-03-18 20:00:00 20 5 Este 7 Este 0 1001.8 0 53
2020-03-18 19:00:00 23.8 2 Sur 6 Nordeste 0 1001.6 -0.9 39
2020-03-18 18:00:00 25.3 3 Sur 6 Este 0 1001.5 -1.8 30
2020-03-18 17:00:00 25.1 3 Norte 9 Noroeste 0 1001.8 -2.7 27
2020-03-18 16:00:00 24.4 4 Sur 9 Noroeste 0 1002.5 -3.3 36
2020-03-18 15:00:00 22.7 4 Sudoeste 8 Sur 0 1003.3 -3.8 47
2020-03-18 14:00:00 20.3 4 Sur 9 Sur 0 1004.5 -3.4 52
2020-03-18 13:00:00 17.1 4 Sur 7 Sudeste 0 1005.8 -2.4 64
2020-03-18 12:00:00 13.1 3 Sudeste 7 Sudoeste 0 1007.1 -1.1 74
2020-03-18 11:00:00 9.8 4 Sur 8 Sur 0 1007.9 -0.5 86
2020-03-18 10:00:00 7.5 3 Sur 6 Sudoeste 0 1008.2 -0.1 96
2020-03-18 09:00:00 6.1 2 Sudoeste 5 Sudeste 0 1008.2 0.2 98
2020-03-18 08:00:00 4.6 2 Sudeste 5 Sudeste 0 1008.4 0.6 95
2020-03-18 07:00:00 4.8 2 Sur 5 Oeste 0 1008.3 0.4 93
2020-03-18 06:00:00 5.3 0 Calma 3 Oeste 0 1008 0 92
2020-03-18 05:00:00 6.1 0 Calma 5 Oeste 0 1007.8 -0.3 92
2020-03-18 04:00:00 6.8 3 Sudoeste 6 Oeste 0 1007.9 -0.3 92
2020-03-18 03:00:00 7.3 3 Sudeste 5 Sudeste 0 1008 -0.4 92
2020-03-18 02:00:00 8.1 2 Sudoeste 4 Oeste 0 1008.1 0.1 89
2020-03-18 01:00:00 9.3 0 Calma 4 Oeste 0 1008.2 0.4 86
2020-03-18 00:00:00 10.8 3 Este 7 Este 0 1008.4 1.5 82
2020-03-17 23:00:00 12.4 3 Este 7 Noroeste 0 1008 2.2 77
2020-03-17 22:00:00 14.2 3 Nordeste 16 Sudeste 0 1007.8 2.6 70
2020-03-17 21:00:00 15.5 4 Oeste 17 Noroeste 0 1006.9 2.4 65
2020-03-17 20:00:00 17.1 6 Nordeste 19 Nordeste 0 1005.8 1.6 59
2020-03-17 19:00:00 19.2 7 Nordeste 17 Nordeste 0 1005.2 0.8 53
2020-03-17 18:00:00 20.7 7 Nordeste 19 Nordeste 0 1004.5 -0.1 48
2020-03-17 17:00:00 22.5 6 Norte 23 Este 0 1004.2 -1.2 42
2020-03-17 16:00:00 21.3 8 Nordeste 21 Nordeste 0 1004.4 -1.7 42
2020-03-17 15:00:00 20.8 7 Norte 17 Este 0 1004.6 -2.6 42
2020-03-17 14:00:00 18.9 7 Norte 19 Norte 0 1005.4 -2.5 46
2020-03-17 13:00:00 16.7 9 Nordeste 20 Nordeste 0 1006.1 -2.1 50
2020-03-17 12:00:00 14.1 4 Sudeste 14 Sudeste 0 1007.2 -0.6 55
2020-03-17 11:00:00 11.6 5 Sur 11 Sudoeste 0 1007.9 0.5 63
2020-03-17 10:00:00 8.4 3 Este 8 Sudoeste 0 1008.2 1.5 73
2020-03-17 09:00:00 5.7 3 Sudeste 6 Nordeste 0 1007.8 1.6 83
2020-03-17 08:00:00 5.2 2 Sur 8 Noroeste 0 1007.4 1.7 81
2020-03-17 07:00:00 6.6 3 Nordeste 10 Oeste 0 1006.7 0.9 75
2020-03-17 06:00:00 6.8 3 Noroeste 10 Oeste 0 1006.2 0.4 73
2020-03-17 05:00:00 7.5 3 Norte 13 Este 0 1005.7 -0.2 70
2020-03-17 04:00:00 7.4 3 Nordeste 18 Nordeste 0 1005.8 0 69
2020-03-17 03:00:00 7.2 3 Nordeste 10 Nordeste 0 1005.8 0.4 70
2020-03-17 02:00:00 8.2 5 Nordeste 18 Nordeste 0 1005.9 0.6 65
2020-03-17 01:00:00 8.6 6 Nordeste 19 Norte 0 1005.8 1 61
2020-03-17 00:00:00 8.8 5 Noroeste 30 Este 0 1005.4 0.4 56
2020-03-16 23:00:00 9.2 9 Nordeste 30 Noroeste 0 1005.3 1 56
2020-03-16 22:00:00 9.2 4 Sudoeste 19 Noroeste 0 1004.8 1.7 62
2020-03-16 21:00:00 10 7 Nordeste 16 Nordeste 0 1005 1.8 61
2020-03-16 20:00:00 10.4 5 Oeste 28 Noroeste 0 1004.3 1.4 58
2020-03-16 19:00:00 11.5 13 Nordeste 33 Nordeste 0 1003.1 0.1 53
2020-03-16 18:00:00 12.9 8 Norte 39 Noroeste 0 1003.2 0.7 50
2020-03-16 17:00:00 14.2 7 Nordeste 30 Noroeste 0 1002.9 -0.1 47
2020-03-16 16:00:00 14.4 11 Norte 33 Nordeste 0 1003 -0.8 44
2020-03-16 15:00:00 13.8 8 Norte 33 Nordeste 0 1002.5 -1.5 47
2020-03-16 14:00:00 13.7 12 Nordeste 32 Noroeste 0 1003 -1 47
2020-03-16 13:00:00 12.8 6 Norte 24 Este 0 1003.8 0.2 57
2020-03-16 12:00:00 10.9 8 Nordeste 23 Nordeste 0 1004 1 65
2020-03-16 11:00:00 8.1 4 Sudeste 9 Sudoeste 0 1004 1.5 81
2020-03-16 10:00:00 5.3 3 Sur 7 Sudoeste 0 1003.6 1.7 96
2020-03-16 09:00:00 3.9 2 Sudoeste 5 Sudoeste 0 1003 1.5 97
2020-03-16 08:00:00 3.8 3 Sudeste 4 Sudeste 0 1002.5 1.5 95
2020-03-16 07:00:00 4.1 2 Sur 6 Este 0 1001.9 1.1 96
2020-03-16 06:00:00 3.9 2 Sudoeste 9 Nordeste 0 1001.5 0.8 96
2020-03-16 05:00:00 3.9 3 Oeste 6 Oeste 0 1001 0.5 96
2020-03-16 04:00:00 4.3 4 Oeste 9 Oeste 0 1000.8 0.6 94
2020-03-16 03:00:00 4.5 3 Nordeste 8 Nordeste 0 1000.7 0.6 93
2020-03-16 02:00:00 4.8 3 Este 8 Este 0 1000.5 0.6 91
2020-03-16 01:00:00 5.5 3 Nordeste 6 Nordeste 0 1000.2 0.8 88
2020-03-16 00:00:00 5.6 3 Sudeste 7 Sudeste 0 1000.1 1.1 89
2020-03-15 23:00:00 6.2 3 Oeste 11 Oeste 0 999.9 1.3 83
2020-03-15 22:00:00 6 4 Oeste 14 Oeste 0 999.4 1.2 84
2020-03-15 21:00:00 6.4 4 Oeste 10 Oeste 0 999 0.7 83
2020-03-15 20:00:00 7.4 0 Calma 9 Nordeste 0.2 998.6 0.5 83
2020-03-15 19:00:00 7.9 3 Sur 6 Sudeste 0 998.2 1 87
2020-03-15 18:00:00 7.7 3 Nordeste 16 Oeste 1.2 998.3 1.5 86
2020-03-15 17:00:00 8.2 6 Oeste 17 Noroeste 0.6 998.1 2.4 77
2020-03-15 16:00:00 9.5 6 Oeste 19 Oeste 0.2 997.2 1.8 78
2020-03-15 15:00:00 9.7 4 Oeste 22 Noroeste 1.6 996.8 0 83
2020-03-15 14:00:00 13.9 9 Oeste 24 Oeste 0 995.7 -2 68
2020-03-15 13:00:00 15.1 3 Sur 7 Sudoeste 0 995.4 -3.2 58
2020-03-15 12:00:00 11.1 3 Sudoeste 8 Sur 0 996.8 -2.1 72
2020-03-15 11:00:00 8.1 4 Sudoeste 10 Sudoeste 0 997.7 -1.5 79
2020-03-15 10:00:00 5.4 2 Este 6 Nordeste 0 998.6 0 84
2020-03-15 09:00:00 2.5 3 Sur 6 Oeste 0 998.9 0.6 94
2020-03-15 08:00:00 1 0 Calma 5 Oeste 0 999.2 1.2 93
2020-03-15 07:00:00 1.4 3 Sudoeste 6 Oeste 0 998.6 0.4 91
2020-03-15 06:00:00 1.7 3 Oeste 4 Sur 0 998.3 -0.6 91
2020-03-15 05:00:00 2.2 2 Sudoeste 4 Oeste 0 998 -1.2 91
2020-03-15 04:00:00 3 4 Oeste 5 Sudoeste 0 998.2 -1.5 89
2020-03-15 03:00:00 4 3 Oeste 4 Oeste 0 998.9 -1.3 87
2020-03-15 02:00:00 4.9 3 Oeste 5 Oeste 0 999.2 -0.9 84
2020-03-15 01:00:00 6 3 Sudoeste 4 Oeste 0 999.7 -0.4 81
2020-03-15 00:00:00 7 0 Calma 5 Oeste 0 1000.2 0.1 78
2020-03-14 23:00:00 8.5 3 Oeste 4 Oeste 0 1000.1 0.4 72
2020-03-14 22:00:00 10.3 3 Oeste 4 Oeste 0 1000.1 0.5 65
2020-03-14 21:00:00 12.7 0 Calma 3 Sudoeste 0 1000.1 0.4 59
2020-03-14 20:00:00 16.7 2 Oeste 7 Oeste 0 999.7 -0.6 47
2020-03-14 19:00:00 21.7 3 Oeste 5 Oeste 0 999.6 -1.3 30
2020-03-14 18:00:00 21.5 3 Sudoeste 8 Sur 0 999.7 -2.2 36
2020-03-14 17:00:00 20.8 5 Oeste 9 Noroeste 0 1000.3 -3.2 40
2020-03-14 16:00:00 19.2 6 Sur 10 Sudoeste 0 1000.9 -3.7 42
2020-03-14 15:00:00 17 6 Sur 8 Sur 0 1001.9 -3.9 52
2020-03-14 14:00:00 14.7 5 Sudeste 12 Oeste 0 1003.5 -2.9 58
2020-03-14 13:00:00 12.9 5 Oeste 11 Sudoeste 0 1004.6 -1.7 64
2020-03-14 12:00:00 10.4 4 Este 10 Noroeste 0 1005.8 -0.2 69
2020-03-14 11:00:00 9.4 4 Nordeste 12 Norte 0 1006.4 0.6 74
2020-03-14 10:00:00 8.8 4 Norte 12 Noroeste 0 1006.3 0.8 76
2020-03-14 09:00:00 8.3 3 Sudoeste 11 Oeste 0 1006 0.7 80
2020-03-14 08:00:00 8.1 4 Oeste 10 Oeste 0 1005.8 0.7 79
2020-03-14 07:00:00 8.1 3 Nordeste 7 Noroeste 0 1005.5 0.2 82
2020-03-14 06:00:00 7.7 2 Sudoeste 5 Noroeste 0 1005.3 -0.3 87
2020-03-14 05:00:00 7.3 0 Calma 5 Sur 0 1005.1 -0.6 87
2020-03-14 04:00:00 7 2 Sudeste 5 Sudoeste 0 1005.3 -0.3 88
2020-03-14 03:00:00 6.7 0 Calma 3 Oeste 0 1005.6 -0.2 87
2020-03-14 02:00:00 7.6 2 Sur 8 Nordeste 0 1005.7 0.5 82
2020-03-14 01:00:00 8.9 3 Sudeste 8 Nordeste 0 1005.6 0.5 78
2020-03-14 00:00:00 9.5 0 Calma 10 Norte 0 1005.8 2 76
2020-03-13 23:00:00 10.4 3 Norte 13 Noroeste 0 1005.2 1.9 73
2020-03-13 22:00:00 11.3 3 Nordeste 18 Nordeste 0 1005.1 2.7 70
2020-03-13 21:00:00 12.8 4 Norte 10 Norte 0 1003.8 1.6 66
2020-03-13 20:00:00 14.4 4 Nordeste 12 Norte 0 1003.3 1 61
2020-03-13 19:00:00 16 5 Norte 17 Norte 0 1002.4 0.1 56
2020-03-13 18:00:00 17 6 Norte 15 Norte 0 1002.2 -0.8 53
2020-03-13 17:00:00 17.2 6 Norte 17 Nordeste 0 1002.3 -1.5 54
2020-03-13 16:00:00 18 8 Nordeste 23 Este 0 1002.3 -2 54
2020-03-13 15:00:00 16.7 7 Norte 18 Este 0 1003 -1.4 55
2020-03-13 14:00:00 15.3 7 Nordeste 20 Este 0 1003.8 -0.7 60
2020-03-13 13:00:00 14.8 6 Nordeste 18 Nordeste 0 1004.3 -0.1 62
2020-03-13 12:00:00 13.1 5 Norte 13 Norte 0 1004.4 0.4 66
2020-03-13 11:00:00 12.2 5 Nordeste 14 Noroeste 0 1004.5 0.9 69
2020-03-13 10:00:00 11 5 Norte 13 Nordeste 0 1004.4 0.9 74
2020-03-13 09:00:00 9.2 2 Sudeste 6 Este 0 1004 0.4 80
2020-03-13 08:00:00 9.9 3 Norte 11 Noroeste 0 1003.6 -0.1 75
2020-03-13 07:00:00 10.3 3 Norte 10 Norte 0 1003.5 -0.5 74
2020-03-13 06:00:00 10.4 5 Norte 18 Norte 0 1003.6 -0.7 73
2020-03-13 05:00:00 10.4 6 Norte 14 Noroeste 0 1003.7 -0.7 73
2020-03-13 04:00:00 10.6 6 Norte 14 Norte 0 1004 -0.6 72
2020-03-13 03:00:00 10.7 5 Norte 11 Norte 0 1004.3 -0.3 72
2020-03-13 02:00:00 10.8 4 Norte 10 Norte 0 1004.4 -0.1 72
2020-03-13 01:00:00 10.9 4 Norte 14 Norte 0 1004.6 0.4 72
2020-03-13 00:00:00 11.1 4 Norte 13 Norte 0 1004.6 0.5 72
2020-03-12 23:00:00 11.2 4 Norte 14 Noroeste 0 1004.5 0.8 72
2020-03-12 22:00:00 11.4 4 Norte 16 Noroeste 0 1004.2 1.3 72
2020-03-12 21:00:00 12 6 Norte 21 Norte 0 1004.1 2 70
2020-03-12 20:00:00 13.1 8 Norte 23 Noroeste 0 1003.7 1.9 68
2020-03-12 19:00:00 15.2 8 Norte 23 Noroeste 0 1002.9 1 61
2020-03-12 18:00:00 17.5 5 Nordeste 20 Nordeste 0 1002.1 -0.1 54
2020-03-12 17:00:00 18.7 7 Norte 18 Norte 0 1001.8 -1.2 51
2020-03-12 16:00:00 18.7 7 Norte 22 Este 0 1001.9 -1.8 52
2020-03-12 15:00:00 19.3 9 Nordeste 23 Nordeste 0 1002.2 -2 50
2020-03-12 14:00:00 19 6 Norte 19 Nordeste 0 1003 -1.7 53
2020-03-12 13:00:00 18.3 6 Norte 16 Noroeste 0 1003.7 -0.9 54
2020-03-12 12:00:00 16.5 6 Norte 15 Norte 0 1004.2 0 60
2020-03-12 11:00:00 14.4 5 Norte 12 Norte 0 1004.7 1 68
2020-03-12 10:00:00 13.1 4 Norte 8 Norte 0 1004.6 1.2 76
2020-03-12 09:00:00 11.1 3 Oeste 4 Oeste 0 1004.2 1 92
2020-03-12 08:00:00 10.5 2 Sudoeste 3 Sudoeste 0 1003.7 0.6 93
2020-03-12 07:00:00 10.1 0 Calma 2 Sudoeste 0 1003.4 -0.2 93
2020-03-12 06:00:00 9.7 0 Calma 3 Sudoeste 0 1003.2 -0.9 94
2020-03-12 05:00:00 9.3 0 Calma 4 Sudeste 0 1003.1 -1 94
2020-03-12 04:00:00 9.3 0 Calma 4 Oeste 0 1003.6 -0.5 92
2020-03-12 03:00:00 9.5 0 Calma 4 Oeste 0 1004.1 0 92
2020-03-12 02:00:00 10.2 0 Calma 4 Oeste 0 1004.1 0.4 90
2020-03-12 01:00:00 11.3 0 Calma 5 Oeste 0 1004.1 0.7 88
2020-03-12 00:00:00 12.6 2 Oeste 4 Sur 0 1004.1 1 86
2020-03-11 23:00:00 14 2 Sudoeste 6 Nordeste 0 1003.7 0.9 80
2020-03-11 22:00:00 15.6 4 Este 7 Este 0 1003.4 1.1 77
2020-03-11 21:00:00 17.5 3 Este 6 Noroeste 0 1003.1 1 68
2020-03-11 20:00:00 20 3 Norte 8 Sudoeste 0 1002.8 0.6 57
2020-03-11 19:00:00 23.1 3 Oeste 15 Noroeste 0 1002.3 -0.1 45
2020-03-11 18:00:00 24.3 8 Oeste 18 Oeste 0 1002.1 -0.7 38
2020-03-11 17:00:00 24.3 12 Oeste 24 Oeste 0 1002.2 -1.7 39
2020-03-11 16:00:00 24.6 8 Oeste 22 Oeste 0 1002.4 -2.7 38
2020-03-11 15:00:00 22.7 3 Este 8 Sudoeste 0 1002.8 -3.3 48
2020-03-11 14:00:00 18.7 3 Sur 8 Sur 0 1003.9 -2.9 60
2020-03-11 13:00:00 15.4 3 Sudeste 10 Sudoeste 0 1005.1 -1.8 71
2020-03-11 12:00:00 11.6 5 Oeste 10 Oeste 0 1006.1 -0.7 84
2020-03-11 11:00:00 8.8 3 Sur 6 Sudoeste 0 1006.8 0 94
2020-03-11 10:00:00 8.1 4 Sudeste 7 Sudeste 0 1006.9 0.2 98
2020-03-11 09:00:00 7.6 3 Sudeste 8 Sudeste 0 1006.8 0 97
2020-03-11 08:00:00 7.4 4 Sudeste 5 Sudeste 0 1006.8 0 97
2020-03-11 07:00:00 6.8 2 Oeste 5 Oeste 0 1006.7 -0.3 95
2020-03-11 06:00:00 6.3 0 Calma 3 Oeste 0 1006.8 -0.7 95
2020-03-11 05:00:00 6.4 3 Oeste 5 Sudoeste 0 1006.8 -1.1 93
2020-03-11 04:00:00 7 2 Sur 4 Este 0 1007 -1.2 93
2020-03-11 03:00:00 7.8 0 Calma 4 Oeste 0 1007.5 -0.8 93
2020-03-11 02:00:00 8.6 0 Calma 3 Sudoeste 0 1007.9 -0.1 92
2020-03-11 01:00:00 9.5 2 Sudoeste 4 Oeste 0 1008.2 0.3 89
2020-03-11 00:00:00 10.4 3 Oeste 5 Oeste 0 1008.3 0.4 87
2020-03-10 23:00:00 11.4 0 Calma 4 Oeste 0 1008 0.8 83
2020-03-10 22:00:00 13 2 Sur 5 Oeste 0 1007.9 1.3 78
2020-03-10 21:00:00 15 3 Oeste 8 Este 0 1007.9 1.5 69
2020-03-10 20:00:00 18 0 Calma 11 Oeste 0 1007.2 0.5 57
2020-03-10 19:00:00 20.9 6 Oeste 18 Oeste 0 1006.6 -0.3 45
2020-03-10 18:00:00 21.9 8 Oeste 21 Oeste 0 1006.4 -0.9 43
2020-03-10 17:00:00 21.9 8 Oeste 24 Oeste 0 1006.7 -1.4 44
2020-03-10 16:00:00 22.1 7 Oeste 23 Oeste 0 1006.9 -2.1 44
2020-03-10 15:00:00 20.9 5 Oeste 14 Oeste 0 1007.3 -2.7 48
2020-03-10 14:00:00 17.5 3 Norte 9 Oeste 0 1008.1 -2.4 56
2020-03-10 13:00:00 13.1 4 Oeste 10 Oeste 0 1009 -1.5 71
2020-03-10 12:00:00 8.8 5 Oeste 10 Oeste 0 1010 -0.1 92
2020-03-10 11:00:00 7.4 4 Sudoeste 8 Sur 0 1010.5 0.9 96
2020-03-10 10:00:00 6.6 3 Sur 9 Sur 0 1010.5 0.7 98
2020-03-10 09:00:00 6.3 3 Sur 4 Sur 0 1010.1 0.4 99
2020-03-10 08:00:00 5.7 2 Sur 8 Sur 0 1009.6 0 98
2020-03-10 07:00:00 5.5 2 Oeste 4 Sudoeste 0 1009.8 0 96
2020-03-10 06:00:00 5 0 Calma 3 Sudeste 0 1009.7 -0.6 96
2020-03-10 05:00:00 5.2 4 Oeste 5 Oeste 0 1009.6 -0.9 93
2020-03-10 04:00:00 5.9 0 Calma 4 Oeste 0 1009.8 -1.1 93
2020-03-10 03:00:00 6.6 0 Calma 3 Sudeste 0 1010.3 -0.8 92
2020-03-10 02:00:00 7.3 3 Sudoeste 4 Sudoeste 0 1010.5 -0.4 90
2020-03-10 01:00:00 8 2 Sudoeste 4 Oeste 0 1010.9 0.4 88
2020-03-10 00:00:00 8.7 0 Calma 4 Oeste 0 1011.1 0.9 87
2020-03-09 23:00:00 9.9 2 Sudoeste 5 Oeste 0 1010.9 1.1 82
2020-03-09 22:00:00 11.2 2 Oeste 6 Oeste 0 1010.5 1.1 79
2020-03-09 21:00:00 13 0 Calma 9 Este 0 1010.2 0.8 72
2020-03-09 20:00:00 15.3 6 Este 10 Este 0 1009.8 0.2 63
2020-03-09 19:00:00 18.1 0 Calma 7 Sudeste 0 1009.4 -1 48
2020-03-09 18:00:00 18.5 3 Sudeste 10 Sur 0 1009.4 -1.5 46
2020-03-09 17:00:00 18.4 3 Sur 13 Este 0 1009.6 -2.5 48
2020-03-09 16:00:00 17.6 5 Sudeste 14 Sudeste 0 1010.4 -2.2 48
2020-03-09 15:00:00 16.7 5 Sur 13 Sur 0 1010.9 -2.7 49
2020-03-09 14:00:00 15.6 4 Sudoeste 14 Nordeste 0 1012.1 -2 53
2020-03-09 13:00:00 14 4 Noroeste 9 Noroeste 0 1012.6 -1.1 62
2020-03-09 12:00:00 10 4 Sudoeste 9 Sudoeste 0 1013.6 0.5 82
2020-03-09 11:00:00 6.7 4 Sudoeste 6 Sudoeste 0 1014.1 1.9 92
2020-03-09 10:00:00 5.2 2 Sudoeste 5 Sudeste 0 1013.7 1.4 96
2020-03-09 09:00:00 3.7 0 Calma 5 Sur 0 1013.1 1.8 98
2020-03-09 08:00:00 3 0 Calma 5 Sudoeste 0 1012.2 0.9 96
2020-03-09 07:00:00 3.2 2 Sudoeste 5 Sudeste 0 1012.3 0.3 94
2020-03-09 06:00:00 4 3 Sudeste 5 Sudoeste 0 1011.3 -0.5 96
2020-03-09 05:00:00 4.7 2 Oeste 5 Sudeste 0 1011.3 -0.4 94
2020-03-09 04:00:00 5.6 2 Sudeste 4 Oeste 0 1012 0.4 93
2020-03-09 03:00:00 5.6 2 Sudoeste 5 Oeste 0 1011.8 0.2 93
2020-03-09 02:00:00 6.4 0 Calma 5 Oeste 0 1011.7 0.6 92
2020-03-09 01:00:00 7.2 2 Oeste 5 Oeste 0 1011.6 1 89
2020-03-09 00:00:00 7.7 4 Oeste 6 Oeste 0 1011.6 1.4 87
2020-03-08 23:00:00 9.1 3 Este 6 Nordeste 0 1011.1 1.9 82
2020-03-08 22:00:00 10.8 2 Oeste 10 Oeste 0 1010.6 1.8 76
2020-03-08 21:00:00 11.7 3 Oeste 9 Oeste 0 1010.2 2.4 73
2020-03-08 20:00:00 12.6 2 Sur 22 Oeste 0 1009.2 1.8 66
2020-03-08 19:00:00 14.5 12 Oeste 23 Oeste 0 1008.8 1.5 60
2020-03-08 18:00:00 15.2 9 Sudoeste 24 Sudoeste 0 1007.8 0.2 67
2020-03-08 17:00:00 17.1 9 Sudoeste 25 Sur 0 1007.4 -0.4 66
2020-03-08 16:00:00 17.5 10 Oeste 26 Sudoeste 0 1007.3 -1.6 65
2020-03-08 15:00:00 16.5 12 Sudoeste 27 Oeste 0 1007.6 -1.4 70
2020-03-08 14:00:00 14.1 5 Sur 12 Sudoeste 0 1007.8 -1 77
2020-03-08 13:00:00 11.6 2 Sudeste 5 Sudoeste 0 1008.9 0.1 80
2020-03-08 12:00:00 10.1 4 Oeste 6 Oeste 0 1009 0.5 85
2020-03-08 11:00:00 9.1 2 Sudoeste 4 Sudeste 0 1008.8 0.7 91
2020-03-08 10:00:00 8.4 3 Sur 6 Oeste 0 1008.8 0.9 90
2020-03-08 09:00:00 7.7 0 Calma 3 Oeste 0 1008.5 0.4 90
2020-03-08 08:00:00 6.9 2 Sudoeste 6 Oeste 0 1008.1 0.1 92
2020-03-08 07:00:00 6.4 0 Calma 5 Oeste 0 1007.9 -0.7 92
2020-03-08 06:00:00 5.9 3 Sur 4 Sudoeste 0 1008.1 -0.9 93
2020-03-08 05:00:00 5.3 3 Sur 6 Oeste 0 1008 -0.8 93
2020-03-08 04:00:00 4.9 0 Calma 5 Oeste 0 1008.6 -0.5 94
2020-03-08 03:00:00 5.1 3 Oeste 6 Sudoeste 0 1009 -0.4 92
2020-03-08 02:00:00 5.8 2 Sur 4 Oeste 0 1008.8 -0.6 90
2020-03-08 01:00:00 6.7 2 Sur 6 Sudoeste 0 1009.1 0.3 88
2020-03-08 00:00:00 7.4 0 Calma 8 Oeste 0 1009.4 0.8 88
2020-03-07 23:00:00 8.3 3 Oeste 7 Este 0 1009.4 1.2 84
2020-03-07 22:00:00 9.9 4 Sudeste 8 Este 0 1008.8 1.5 78
2020-03-07 21:00:00 12.4 3 Sudoeste 15 Oeste 0 1008.6 1.7 66
2020-03-07 20:00:00 14.2 3 Sur 11 Sudeste 0 1008.2 0.6 60
2020-03-07 19:00:00 17.1 6 Sudoeste 11 Sudoeste 0 1007.3 -0.9 51
2020-03-07 18:00:00 18.3 4 Noroeste 10 Noroeste 0 1006.9 -1.9 45
2020-03-07 17:00:00 18.2 6 Norte 12 Este 0 1007.6 -2.3 43
2020-03-07 16:00:00 17.2 4 Sur 11 Oeste 0 1008.2 -2.7 47
2020-03-07 15:00:00 16.6 6 Sur 16 Sudeste 0 1008.8 -2.5 51
2020-03-07 14:00:00 15.6 5 Este 10 Este 0 1009.9 -1.6 52
2020-03-07 13:00:00 14.1 4 Sudeste 9 Sur 0 1010.9 -0.3 59
2020-03-07 12:00:00 11.8 4 Sudeste 10 Sudeste 0 1011.3 0.2 78
2020-03-07 11:00:00 9.2 3 Sudeste 8 Nordeste 0 1011.5 0.6 92
2020-03-07 10:00:00 8.5 3 Nordeste 10 Nordeste 0 1011.2 0.4 94
2020-03-07 09:00:00 7.9 3 Este 5 Nordeste 0 1011.1 0.6 97
2020-03-07 08:00:00 7.8 0 Calma 6 Nordeste 0 1010.9 0.7 95
2020-03-07 07:00:00 8.4 2 Sur 4 Sur 0 1010.8 0.3 95
2020-03-07 06:00:00 8.5 2 Sur 3 Sur 0 1010.5 -0.5 96
2020-03-07 05:00:00 8.5 3 Este 6 Este 0.8 1010.2 -0.8 94
2020-03-07 04:00:00 8.8 0 Calma 6 Sudoeste 0 1010.5 -0.8 90
2020-03-07 03:00:00 8.8 3 Sudeste 6 Oeste 0 1011 -0.3 88
2020-03-07 02:00:00 8.9 3 Sudeste 5 Sudeste 0 1011 0.1 86
2020-03-07 01:00:00 9.3 3 Sudoeste 5 Sudeste 0 1011.3 0.9 84
2020-03-07 00:00:00 9.8 3 Sudeste 7 Norte 0 1011.3 1.2 75
2020-03-06 23:00:00 10.1 2 Nordeste 6 Oeste 0 1010.9 1.4 72
2020-03-06 22:00:00 10.2 2 Sudoeste 6 Oeste 0 1010.4 2 71
2020-03-06 21:00:00 10.6 4 Nordeste 6 Nordeste 0 1010.1 2.3 66
2020-03-06 20:00:00 11.3 4 Este 19 Noroeste 0 1009.5 2 59
2020-03-06 19:00:00 12.8 5 Norte 20 Norte 0 1008.4 1.7 48
2020-03-06 18:00:00 14.5 5 Nordeste 22 Norte 0 1007.8 1 38
2020-03-06 17:00:00 14.8 8 Norte 32 Oeste 0 1007.5 0.3 38
2020-03-06 16:00:00 14.9 11 Oeste 30 Oeste 0 1006.7 -1.5 46
2020-03-06 15:00:00 13.7 6 Norte 23 Noroeste 0 1006.8 -0.4 53
2020-03-06 14:00:00 13.3 6 Oeste 22 Oeste 0 1007.2 0.4 52
2020-03-06 13:00:00 10.5 8 Norte 21 Oeste 0 1008.2 2.1 66
2020-03-06 12:00:00 10.4 8 Oeste 24 Oeste 0 1007.2 2.1 64
2020-03-06 11:00:00 9.4 6 Oeste 20 Noroeste 0 1006.8 2.9 81
2020-03-06 10:00:00 8.5 6 Oeste 13 Oeste 0.6 1006.1 2.6 87
2020-03-06 09:00:00 7.6 2 Sudoeste 11 Oeste 0.2 1005.1 2.5 89
2020-03-06 08:00:00 7.7 4 Oeste 12 Oeste 0.4 1003.9 1.9 85
2020-03-06 07:00:00 7.4 2 Este 7 Sudoeste 0 1003.5 1.8 88
2020-03-06 06:00:00 7.6 4 Oeste 8 Noroeste 0 1002.6 1.3 85
2020-03-06 05:00:00 7.4 2 Sudeste 4 Sudeste 0.2 1002 1.4 95
2020-03-06 04:00:00 7.7 3 Este 10 Norte 0.2 1001.7 1.7 94
2020-03-06 03:00:00 7.7 3 Este 7 Sudeste 0 1001.3 1.8 94
2020-03-06 02:00:00 8.6 3 Nordeste 10 Nordeste 0.4 1000.6 0.8 91
2020-03-06 01:00:00 8.5 4 Sudeste 18 Norte 1.4 1000 0.1 89
2020-03-06 00:00:00 9.2 5 Sudeste 11 Sudeste 0.4 999.5 -0.7 91
2020-03-05 23:00:00 9.1 3 Sur 18 Sudoeste 0.8 999.8 -0.4 90
2020-03-05 22:00:00 9.1 6 Sudeste 10 Sudeste 0 999.9 0.4 89
2020-03-05 21:00:00 9.5 6 Sudoeste 14 Oeste 0.2 1000.2 0.8 86
2020-03-05 20:00:00 10.4 3 Sudoeste 18 Sudoeste 0.6 1000.2 1 82
2020-03-05 19:00:00 12.3 3 Sudoeste 12 Oeste 0 999.5 0.9 72
2020-03-05 18:00:00 12.4 6 Oeste 25 Oeste 0.2 999.4 1.4 69
2020-03-05 17:00:00 12.5 7 Noroeste 23 Oeste 0.4 999.2 1.2 70
2020-03-05 16:00:00 12.7 7 Oeste 32 Oeste 0.2 998.6 1.4 70
2020-03-05 15:00:00 13.8 4 Noroeste 21 Noroeste 0.2 998 1.5 72
2020-03-05 14:00:00 13.4 4 Sudoeste 23 Oeste 0.6 998 2.3 80
2020-03-05 13:00:00 14.3 5 Oeste 29 Sudoeste 0 997.2 2.2 74
2020-03-05 12:00:00 12.5 8 Sudoeste 18 Sudoeste 0.2 996.5 1.8 83
2020-03-05 11:00:00 11.6 3 Sudeste 16 Sur 0.2 995.7 1.8 88
2020-03-05 10:00:00 11 5 Sur 15 Sudeste 0 995 1.5 87
2020-03-05 09:00:00 10.1 7 Sudeste 13 Sudeste 0 994.7 1.1 91
2020-03-05 08:00:00 10.3 7 Sur 19 Sur 0.2 993.9 1.4 88
2020-03-05 07:00:00 10.3 8 Sur 17 Sur 0.8 993.5 2.4 89
2020-03-05 06:00:00 10.9 9 Sudoeste 30 Sudoeste 3.2 993.6 1.1 85
2020-03-05 05:00:00 12.4 10 Oeste 36 Oeste 4.6 992.5 -0.9 87
2020-03-05 04:00:00 13.7 5 Sudeste 12 Sur 4 991.1 -3.9 91
2020-03-05 03:00:00 14.6 3 Sur 18 Sur 0.6 992.5 -3.8 86
2020-03-05 02:00:00 15.2 7 Sudoeste 25 Oeste 0 993.4 -4.2 80
2020-03-05 01:00:00 15.9 19 Sudoeste 33 Sur 0 995 -3.3 76
2020-03-05 00:00:00 15.8 9 Sur 22 Sur 0 996.3 -2.2 77
2020-03-04 23:00:00 15.5 11 Sur 31 Sudoeste 0 997.6 -1.2 84
2020-03-04 22:00:00 15.3 9 Sur 20 Sudoeste 0 998.3 -1 87
2020-03-04 21:00:00 16 8 Sudoeste 18 Sudeste 0 998.5 -1.1 80
2020-03-04 20:00:00 15.8 9 Sur 24 Sudoeste 0 998.8 -0.9 82
2020-03-04 19:00:00 16.4 13 Sudoeste 28 Sur 0 999.3 -1.2 78
2020-03-04 18:00:00 16.8 10 Sudoeste 27 Sudoeste 0 999.6 -1.4 76
2020-03-04 17:00:00 17.7 15 Sudoeste 37 Sudoeste 0 999.7 -2.1 70
2020-03-04 16:00:00 18.7 8 Sudoeste 26 Sur 0.2 1000.5 -2 70
2020-03-04 15:00:00 18.1 10 Sudoeste 29 Sudoeste 0 1001 -1.9 70
2020-03-04 14:00:00 18.7 13 Sudoeste 24 Sudoeste 0 1001.8 -0.9 67
2020-03-04 13:00:00 17.3 13 Sur 24 Sudoeste 0 1002.5 0.1 74
2020-03-04 12:00:00 15.9 8 Sur 27 Sudoeste 0 1002.9 0.4 84
2020-03-04 11:00:00 15.3 6 Sur 15 Sur 0 1002.7 0.6 83
2020-03-04 10:00:00 14.9 8 Sur 15 Sudeste 0 1002.4 0.4 84
2020-03-04 09:00:00 14.2 7 Sur 17 Sudeste 0 1002.5 0.5 87
2020-03-04 08:00:00 14.1 6 Sudeste 15 Sudeste 0 1002.1 0.5 86
2020-03-04 07:00:00 14.1 8 Sudeste 16 Sur 0 1002 0.3 86
2020-03-04 06:00:00 13.9 7 Sudeste 17 Sudeste 0 1002 -0.1 87
2020-03-04 05:00:00 14.1 8 Sur 19 Sur 0 1001.6 -0.6 85
2020-03-04 04:00:00 14.1 6 Sur 15 Sur 0 1001.7 -0.1 87
2020-03-04 03:00:00 14.1 6 Sudeste 19 Sur 0.2 1002.1 0.2 88
2020-03-04 02:00:00 14.4 5 Sur 17 Sudeste 0 1002.2 0.4 88
2020-03-04 01:00:00 14.6 9 Sur 18 Sudeste 0 1001.8 0.2 88
2020-03-04 00:00:00 14.7 7 Sudeste 16 Sudeste 0 1001.9 0.7 88